Terminal Aerodrome Forecast
Issued by NWS

Home | Current Version | Previous Version | Graphics & Text | Print | Product List | Glossary On
Versions: 1 2 3 4 5 6 7 8 9 10 11 12 13 14 15 16 17 18 19 20 21 22 23 24 25 26 27 28 29 30 31 32 33 34 35 36
523
FTUS43 KGRB 281143 RRA
TAFRHI
TAF
KRHI 281143Z 2812/2912 16006KT 5SM BR BKN008 OVC012
      TEMPO 2813/2817 3SM -SHRA BR BKN012 OVC025
     FM281700 19008KT P6SM VCSH BKN015 OVC050
     FM290400 20003KT 4SM -SHRA BR BKN009 BKN040
      TEMPO 2908/2912 1 1/2SM -SHRA BR OVC004=

USA.gov is the U.S. government's official web portal to all federal, state and local government web resources and services.